Time;durP1;ratioP1;P1;durP2;ratioP2;P2;SDS_P1;SDS_P2;PMS_P1;PMS_P2;Temp;Humidity;BMP_temperature;BMP_pressure;BME280_temperature;BME280_humidity;BME280_pressure;Samples;Min_cycle;Max_cycle;Signal;HPM_P1;HPM_P2
2022/05/05 00:00:47;;;;;;;1.17;1.05;;;18.30;61.70;;;;;;5033216;28;20678;-65
2022/05/05 00:03:13;;;;;;;1.10;1.10;;;18.30;61.70;;;;;;5033154;28;20071;-65
2022/05/05 00:05:38;;;;;;;0.98;0.98;;;18.30;61.70;;;;;;5033235;28;20079;-65
2022/05/05 00:08:04;;;;;;;1.30;1.20;;;18.30;61.80;;;;;;5031901;28;20103;-65
2022/05/05 00:15:58;;;;;;;1.25;1.10;;;18.30;62.00;;;;;;5033270;28;20064;-65
2022/05/05 00:18:23;;;;;;;1.40;1.30;;;18.30;62.00;;;;;;5031596;28;20437;-65
2022/05/05 00:20:49;;;;;;;1.20;1.10;;;18.30;62.00;;;;;;5032882;28;20097;-65
2022/05/05 00:23:14;;;;;;;1.40;1.20;;;18.30;62.00;;;;;;5032786;28;20021;-65
2022/05/05 00:25:40;;;;;;;1.08;1.00;;;18.40;62.20;;;;;;5033068;28;20076;-65
2022/05/05 00:28:06;;;;;;;1.45;1.30;;;18.30;62.10;;;;;;5032458;28;20411;-65
2022/05/05 00:30:31;;;;;;;1.30;1.13;;;18.40;62.20;;;;;;5032665;28;20495;-65
2022/05/05 00:32:57;;;;;;;1.88;1.10;;;18.40;62.20;;;;;;5032607;28;20029;-65
2022/05/05 00:35:23;;;;;;;1.40;1.30;;;18.40;62.20;;;;;;5032814;28;20556;-65
2022/05/05 00:37:49;;;;;;;1.10;1.10;;;18.30;62.20;;;;;;5032632;28;20507;-65
2022/05/05 00:40:14;;;;;;;1.13;1.02;;;18.40;62.20;;;;;;5032465;28;20026;-65
2022/05/05 00:42:40;;;;;;;0.90;0.90;;;18.40;62.20;;;;;;5032272;28;20045;-65
2022/05/05 00:45:06;;;;;;;1.75;1.10;;;18.40;63.30;;;;;;5032307;28;20028;-65
2022/05/05 00:47:32;;;;;;;1.38;1.10;;;18.40;62.30;;;;;;5032703;28;20030;-65
2022/05/05 00:49:59;;;;;;;1.73;1.13;;;18.40;62.40;;;;;;5032637;28;20029;-65
2022/05/05 00:52:26;;;;;;;1.02;1.00;;;18.40;62.30;;;;;;5032375;28;20565;-65
2022/05/05 00:54:51;;;;;;;1.25;1.10;;;18.40;62.40;;;;;;5032438;28;20025;-65
2022/05/05 00:57:17;;;;;;;1.48;1.10;;;18.40;62.40;;;;;;5030572;28;20402;-65
2022/05/05 00:59:43;;;;;;;1.23;1.13;;;18.40;62.50;;;;;;5032144;28;20022;-65
2022/05/05 01:02:09;;;;;;;1.25;1.10;;;18.40;62.50;;;;;;5032230;28;20113;-65
2022/05/05 01:04:36;;;;;;;1.08;1.08;;;18.40;62.50;;;;;;5030985;28;20033;-65
2022/05/05 01:07:01;;;;;;;1.25;1.00;;;18.40;62.50;;;;;;5030959;28;20100;-65
2022/05/05 01:09:27;;;;;;;1.10;1.00;;;18.40;62.60;;;;;;5014744;28;20056;-65
2022/05/05 01:11:53;;;;;;;1.30;1.20;;;18.40;62.60;;;;;;5032090;28;20029;-65
2022/05/05 01:14:18;;;;;;;1.30;1.20;;;18.50;62.70;;;;;;5032086;28;20033;-65
2022/05/05 01:16:44;;;;;;;3.03;1.20;;;18.50;62.70;;;;;;5030983;28;20025;-65
2022/05/05 01:19:09;;;;;;;1.17;1.10;;;18.50;62.80;;;;;;5032149;28;20053;-65
2022/05/05 01:21:35;;;;;;;1.30;1.15;;;18.40;62.70;;;;;;5032280;28;20045;-65
2022/05/05 01:24:01;;;;;;;1.70;1.00;;;18.40;62.80;;;;;;5030955;28;20096;-65
2022/05/05 01:29:11;;;;;;;1.13;1.13;;;18.50;62.90;;;;;;5031999;28;20083;-65
2022/05/05 01:31:38;;;;;;;1.70;1.20;;;18.40;62.90;;;;;;5030944;28;20060;-65
2022/05/05 01:34:04;;;;;;;1.30;1.20;;;18.40;62.90;;;;;;5030740;28;20044;-65
2022/05/05 01:36:30;;;;;;;1.20;1.10;;;18.40;63.00;;;;;;5031986;28;20022;-65
2022/05/05 01:38:55;;;;;;;1.00;1.00;;;18.50;63.00;;;;;;5032135;28;20393;-65
2022/05/05 01:41:21;;;;;;;1.30;1.17;;;18.40;62.90;;;;;;5031648;28;20049;-65
2022/05/05 01:43:47;;;;;;;0.80;0.80;;;18.50;63.00;;;;;;5031911;28;20144;-65
2022/05/05 01:46:14;;;;;;;1.00;1.00;;;18.40;63.00;;;;;;5031868;28;20054;-65
2022/05/05 01:48:39;;;;;;;1.98;1.10;;;18.50;63.10;;;;;;5032063;28;20545;-65
2022/05/05 01:51:05;;;;;;;2.10;0.90;;;18.40;63.00;;;;;;5030792;28;20021;-65
2022/05/05 01:53:37;;;;;;;0.88;0.88;;;18.40;63.00;;;;;;5030639;28;20152;-65
2022/05/05 01:56:06;;;;;;;1.95;1.20;;;18.50;63.10;;;;;;5031730;28;20014;-65
2022/05/05 01:58:32;;;;;;;1.73;1.08;;;18.50;63.10;;;;;;5030445;28;20454;-65
2022/05/05 02:00:58;;;;;;;1.88;1.08;;;18.40;63.10;;;;;;5030577;28;20021;-65
2022/05/05 02:03:23;;;;;;;2.03;1.10;;;18.50;63.20;;;;;;5031589;28;20450;-65
2022/05/05 02:05:49;;;;;;;1.30;1.00;;;18.50;63.20;;;;;;5031718;28;20079;-65
2022/05/05 02:08:15;;;;;;;0.95;0.88;;;18.50;63.20;;;;;;5031471;28;20032;-65
2022/05/05 02:10:40;;;;;;;1.17;1.00;;;18.50;63.20;;;;;;5034877;28;20140;-65
2022/05/05 02:13:06;;;;;;;1.42;1.05;;;18.50;63.20;;;;;;5035195;28;20021;-65
2022/05/05 02:15:33;;;;;;;1.60;0.98;;;18.50;63.30;;;;;;5017530;28;20026;-65
2022/05/05 02:18:06;;;;;;;1.20;0.95;;;18.50;63.30;;;;;;5034030;28;20025;-65
2022/05/05 02:20:32;;;;;;;;;;;18.50;63.30;;;;;;5035549;28;20025;-65
2022/05/05 02:22:57;;;;;;;1.08;0.98;;;18.40;63.50;;;;;;5034717;28;19905;-65
2022/05/05 02:25:23;;;;;;;4.95;0.90;;;18.40;63.60;;;;;;5035091;28;20472;-65
2022/05/05 02:27:50;;;;;;;1.48;0.90;;;18.40;63.50;;;;;;5035021;28;20040;-65
2022/05/05 02:30:16;;;;;;;1.42;1.00;;;18.40;63.50;;;;;;5034757;28;20491;-65
2022/05/05 02:32:42;;;;;;;1.38;0.98;;;18.40;63.50;;;;;;5017420;28;20021;-65
2022/05/05 02:35:08;;;;;;;1.27;1.10;;;18.50;63.60;;;;;;5035012;28;20377;-65
2022/05/05 02:40:18;;;;;;;2.50;1.10;;;18.40;63.50;;;;;;5034756;28;20032;-65
2022/05/05 02:42:43;;;;;;;1.30;1.10;;;18.50;63.60;;;;;;5034607;28;20046;-65
2022/05/05 02:45:09;;;;;;;1.80;1.10;;;18.40;63.50;;;;;;5034699;28;20028;-65
2022/05/05 02:47:35;;;;;;;1.40;0.98;;;18.50;63.60;;;;;;5033358;28;20130;-65
2022/05/05 02:50:00;;;;;;;1.10;1.00;;;18.40;63.60;;;;;;5034592;28;20037;-65
2022/05/05 02:52:26;;;;;;;1.23;1.00;;;18.50;63.60;;;;;;5034303;28;20036;-65
2022/05/05 02:54:52;;;;;;;2.85;1.20;;;18.50;64.10;;;;;;5034473;28;20396;-65
2022/05/05 02:57:20;;;;;;;1.17;1.10;;;18.50;63.70;;;;;;5034484;28;20032;-65
2022/05/05 02:59:46;;;;;;;1.15;1.00;;;18.50;63.70;;;;;;5016969;28;20125;-65
2022/05/05 03:02:11;;;;;;;1.48;1.05;;;18.50;63.70;;;;;;5034683;28;20100;-65
2022/05/05 03:04:37;;;;;;;1.85;1.15;;;18.40;63.70;;;;;;5034246;28;20025;-65
2022/05/05 03:07:03;;;;;;;0.82;0.82;;;18.50;63.70;;;;;;5032958;28;20581;-65
2022/05/05 03:09:29;;;;;;;1.08;0.98;;;18.50;63.70;;;;;;5034408;28;20057;-65
2022/05/05 03:11:54;;;;;;;2.53;1.20;;;18.50;63.80;;;;;;5034248;28;20032;-65
2022/05/05 03:14:20;;;;;;;0.80;0.80;;;18.50;63.80;;;;;;5034186;28;20084;-65
2022/05/05 03:16:45;;;;;;;1.48;1.10;;;18.40;64.70;;;;;;5033095;28;20148;-65
2022/05/05 03:19:11;;;;;;;1.20;1.10;;;18.40;63.70;;;;;;5034014;28;20052;-65
2022/05/05 03:21:37;;;;;;;1.17;1.08;;;18.50;63.80;;;;;;5033023;28;20080;-65
2022/05/05 03:24:04;;;;;;;0.85;0.85;;;18.50;63.80;;;;;;5033010;28;20036;-65
2022/05/05 03:26:29;;;;;;;1.00;1.00;;;18.50;63.80;;;;;;5033806;28;20021;-65
2022/05/05 03:28:55;;;;;;;1.05;0.93;;;18.50;63.80;;;;;;5034469;28;20059;-65
2022/05/05 03:31:21;;;;;;;0.93;0.93;;;18.50;63.90;;;;;;5033965;28;20494;-65
2022/05/05 03:33:47;;;;;;;2.33;1.10;;;18.50;63.90;;;;;;5033753;28;20114;-65
2022/05/05 03:36:13;;;;;;;1.42;1.10;;;18.50;63.90;;;;;;5033429;28;20048;-65
2022/05/05 03:38:38;;;;;;;1.38;1.10;;;18.50;63.90;;;;;;5033825;28;20080;-65
2022/05/05 03:41:05;;;;;;;1.80;0.95;;;18.50;64.00;;;;;;5033503;28;20175;-65
2022/05/05 03:43:31;;;;;;;1.80;1.10;;;18.50;64.00;;;;;;5032452;28;20049;-65
2022/05/05 03:45:57;;;;;;;1.35;1.08;;;18.50;64.00;;;;;;5032392;28;20562;-65
2022/05/05 03:48:23;;;;;;;1.00;0.90;;;18.50;64.00;;;;;;5033292;28;20057;-65
2022/05/05 03:50:48;;;;;;;1.52;1.10;;;18.50;64.00;;;;;;5032227;28;20480;-65
2022/05/05 03:53:14;;;;;;;2.90;1.10;;;18.50;64.00;;;;;;5033538;28;20104;-65
2022/05/05 03:55:40;;;;;;;1.60;1.00;;;18.50;64.10;;;;;;5033242;28;20021;-65
2022/05/05 03:58:05;;;;;;;0.98;0.90;;;18.50;64.10;;;;;;5033208;28;20384;-65
2022/05/05 04:00:31;;;;;;;2.22;1.05;;;18.50;64.10;;;;;;5032893;28;20514;-65
2022/05/05 04:05:40;;;;;;;1.05;0.95;;;18.50;64.10;;;;;;5031872;28;20071;-65
2022/05/05 04:08:06;;;;;;;0.82;0.82;;;18.40;64.10;;;;;;5033001;28;20100;-65
2022/05/05 04:10:32;;;;;;;1.33;1.23;;;18.50;64.10;;;;;;5032852;28;20055;-65
2022/05/05 04:12:58;;;;;;;1.80;1.45;;;18.50;64.20;;;;;;5031946;28;20029;-65
2022/05/05 04:15:23;;;;;;;1.42;0.95;;;18.50;64.10;;;;;;5033031;28;20083;-65
2022/05/05 04:17:49;;;;;;;1.15;0.90;;;18.50;64.20;;;;;;5032926;28;20022;-65
2022/05/05 04:20:15;;;;;;;0.93;0.93;;;18.50;64.20;;;;;;5032766;28;20159;-65
2022/05/05 04:22:41;;;;;;;0.88;0.88;;;18.50;64.20;;;;;;5031508;28;20480;-65
2022/05/05 04:25:07;;;;;;;4.20;1.13;;;18.50;64.20;;;;;;5031747;28;20025;-65
2022/05/05 04:27:33;;;;;;;2.25;1.02;;;18.50;64.30;;;;;;5031615;28;20025;-65
2022/05/05 04:29:58;;;;;;;1.67;0.90;;;18.50;64.30;;;;;;5032882;28;20083;-65
2022/05/05 04:32:24;;;;;;;4.65;1.13;;;18.50;64.30;;;;;;5032048;28;20103;-65
2022/05/05 04:34:50;;;;;;;1.10;0.93;;;18.50;64.30;;;;;;5031136;28;20099;-65
2022/05/05 04:37:15;;;;;;;1.02;0.95;;;18.50;64.30;;;;;;5032994;28;20021;-65
2022/05/05 04:39:42;;;;;;;2.38;1.20;;;18.50;64.40;;;;;;5031533;28;20454;-65
2022/05/05 04:42:10;;;;;;;1.60;1.02;;;18.50;64.40;;;;;;5032446;28;20034;-65
2022/05/05 04:44:36;;;;;;;1.20;1.10;;;18.50;64.40;;;;;;5032364;28;20480;-65
2022/05/05 04:47:01;;;;;;;0.95;0.88;;;18.50;64.40;;;;;;5032609;28;20026;-65
2022/05/05 04:49:27;;;;;;;1.42;0.80;;;18.50;64.40;;;;;;5032243;28;20033;-65
2022/05/05 04:51:53;;;;;;;1.00;1.00;;;18.50;64.40;;;;;;5032299;28;20025;-65
2022/05/05 04:54:18;;;;;;;1.10;1.00;;;18.50;64.50;;;;;;5032542;28;20380;-65
2022/05/05 04:56:44;;;;;;;1.95;0.90;;;18.50;64.40;;;;;;5032399;28;20022;-65
2022/05/05 04:59:10;;;;;;;1.00;1.00;;;18.50;64.40;;;;;;5032264;28;20084;-65
2022/05/05 05:01:36;;;;;;;0.93;0.88;;;18.50;64.50;;;;;;5033343;28;20024;-65
2022/05/05 05:04:02;;;;;;;1.10;1.00;;;18.50;64.50;;;;;;5031205;28;20032;-65
2022/05/05 05:06:28;;;;;;;1.30;1.00;;;18.50;64.50;;;;;;5032949;28;20442;-65
2022/05/05 05:08:55;;;;;;;1.65;1.00;;;18.50;64.60;;;;;;5039472;28;20487;-65
2022/05/05 05:11:21;;;;;;;0.70;0.70;;;18.50;64.60;;;;;;5038940;28;20018;-65
2022/05/05 05:13:47;;;;;;;3.53;1.13;;;18.50;64.60;;;;;;5039350;28;20025;-65
2022/05/05 05:16:13;;;;;;;2.58;0.95;;;18.50;64.60;;;;;;5052128;28;20468;-65
2022/05/05 05:18:38;;;;;;;0.70;0.70;;;18.50;64.70;;;;;;5052197;28;20464;-65
2022/05/05 05:21:04;;;;;;;0.80;0.80;;;18.50;64.70;;;;;;5052681;28;20044;-65
2022/05/05 05:23:30;;;;;;;0.95;0.90;;;18.50;64.70;;;;;;5052668;28;20372;-65
2022/05/05 05:25:55;;;;;;;1.77;0.80;;;18.50;64.70;;;;;;5052500;28;20462;-65
2022/05/05 05:28:21;;;;;;;1.77;0.90;;;18.60;64.70;;;;;;5034753;28;20033;-65
2022/05/05 05:30:46;;;;;;;0.90;0.85;;;18.50;64.70;;;;;;5052391;28;20104;-65
2022/05/05 05:33:12;;;;;;;0.95;0.95;;;18.50;64.70;;;;;;5052015;28;20488;-65
2022/05/05 05:35:38;;;;;;;1.33;1.00;;;18.50;64.70;;;;;;5051044;28;20395;-65
2022/05/05 05:38:04;;;;;;;1.00;0.93;;;18.50;64.70;;;;;;5052062;28;20638;-65
2022/05/05 05:40:30;;;;;;;1.10;1.00;;;18.50;64.70;;;;;;5049913;28;20021;-65
2022/05/05 05:42:55;;;;;;;1.35;0.77;;;18.50;64.80;;;;;;5021712;28;20033;-65
2022/05/05 05:45:21;;;;;;;1.38;1.10;;;18.50;64.80;;;;;;5015082;28;20113;-65
2022/05/05 05:47:47;;;;;;;3.13;1.15;;;18.50;64.80;;;;;;5014575;28;20112;-66
2022/05/05 05:50:12;;;;;;;2.55;1.73;;;18.50;64.80;;;;;;5014812;28;20030;-65
2022/05/05 05:52:38;;;;;;;3.28;2.00;;;18.50;64.50;;;;;;5015881;28;20030;-65
2022/05/05 05:55:04;;;;;;;3.92;2.00;;;18.40;64.30;;;;;;5014677;28;20022;-65
2022/05/05 05:57:30;;;;;;;2.63;2.15;;;18.30;64.20;;;;;;5015748;28;20491;-65
2022/05/05 05:59:55;;;;;;;3.08;2.20;;;18.30;64.20;;;;;;5017112;28;20106;-65
2022/05/05 06:05:06;;;;;;;3.88;2.13;;;18.20;64.30;;;;;;5035493;28;20032;-66
2022/05/05 06:07:32;;;;;;;6.85;3.00;;;18.20;64.40;;;;;;5034201;28;20430;-65
2022/05/05 06:09:58;;;;;;;7.18;3.00;;;18.10;64.20;;;;;;5035506;28;20029;-65
2022/05/05 06:12:23;;;;;;;6.47;2.97;;;18.10;64.20;;;;;;5035257;28;20021;-64
2022/05/05 06:14:49;;;;;;;4.93;3.03;;;18.10;64.20;;;;;;5034945;28;20034;-62
2022/05/05 06:17:15;;;;;;;4.65;2.78;;;18.10;64.20;;;;;;5035202;28;20022;-64
2022/05/05 06:19:41;;;;;;;4.63;2.97;;;18.00;64.10;;;;;;5035256;28;20032;-63
2022/05/05 06:22:07;;;;;;;4.80;2.65;;;18.00;64.10;;;;;;5035108;28;20017;-65
2022/05/05 06:24:32;;;;;;;4.20;2.53;;;18.00;64.10;;;;;;5035024;28;20083;-64
2022/05/05 06:26:58;;;;;;;6.65;3.25;;;18.00;64.10;;;;;;5035152;28;20040;-64
2022/05/05 06:29:25;;;;;;;5.10;3.08;;;18.00;64.00;;;;;;5034962;28;20033;-64
2022/05/05 06:31:51;;;;;;;6.78;3.05;;;18.00;64.00;;;;;;5034867;28;20021;-64
2022/05/05 06:34:17;;;;;;;5.90;2.97;;;18.00;64.00;;;;;;5035064;28;20032;-64
2022/05/05 06:36:44;;;;;;;4.07;2.67;;;17.90;64.00;;;;;;5034829;28;20407;-64
2022/05/05 06:39:11;;;;;;;5.13;3.35;;;17.90;64.00;;;;;;5034876;28;20049;-64
2022/05/05 06:41:36;;;;;;;4.07;3.10;;;17.90;64.00;;;;;;5034336;28;20071;-65
2022/05/05 06:44:02;;;;;;;5.90;3.03;;;17.90;64.00;;;;;;5034422;28;20112;-64
2022/05/05 06:46:29;;;;;;;3.47;2.72;;;17.90;64.00;;;;;;5033392;28;20018;-64
2022/05/05 06:48:55;;;;;;;4.57;2.70;;;17.90;64.00;;;;;;5032927;28;20021;-64
2022/05/05 06:51:20;;;;;;;3.83;2.83;;;17.80;64.00;;;;;;5033256;28;20726;-64
2022/05/05 06:53:46;;;;;;;4.97;3.13;;;17.80;63.90;;;;;;5033035;28;20021;-64
2022/05/05 06:56:11;;;;;;;4.15;3.00;;;17.80;63.90;;;;;;5031959;28;20033;-64
2022/05/05 06:58:37;;;;;;;3.03;2.58;;;17.80;63.80;;;;;;5032682;28;20064;-64
2022/05/05 07:03:47;;;;;;;2.65;2.33;;;17.80;63.90;;;;;;5034071;28;20051;-64
2022/05/05 07:06:12;;;;;;;5.13;2.75;;;17.70;63.80;;;;;;5016586;28;20403;-64
2022/05/05 07:11:22;;;;;;;3.35;2.30;;;17.70;63.70;;;;;;5034220;28;20080;-64
2022/05/05 07:13:48;;;;;;;3.28;2.17;;;17.70;63.80;;;;;;5034058;28;20021;-64
2022/05/05 07:16:14;;;;;;;2.45;1.90;;;17.70;63.70;;;;;;5034078;28;20018;-64
2022/05/05 07:18:39;;;;;;;2.40;1.80;;;17.70;63.70;;;;;;5032729;28;20025;-64
2022/05/05 07:21:05;;;;;;;4.93;2.22;;;17.70;63.70;;;;;;5034131;28;20103;-64
2022/05/05 07:23:31;;;;;;;3.78;1.92;;;17.60;63.50;;;;;;5034107;28;20033;-64
2022/05/05 07:25:57;;;;;;;3.10;1.80;;;17.60;63.50;;;;;;5016452;28;20017;-64
2022/05/05 07:28:22;;;;;;;2.05;1.48;;;17.50;63.40;;;;;;5016014;28;20068;-64
2022/05/05 07:30:48;;;;;;;1.67;1.30;;;17.50;63.40;;;;;;5033738;28;20021;-64
2022/05/05 07:33:14;;;;;;;1.75;1.60;;;17.50;63.30;;;;;;5034019;28;20029;-64
2022/05/05 07:35:39;;;;;;;4.70;1.75;;;17.50;63.30;;;;;;5033769;28;20029;-64
2022/05/05 07:38:05;;;;;;;3.30;1.60;;;17.50;63.30;;;;;;5033622;28;20467;-64
2022/05/05 07:40:31;;;;;;;2.58;1.77;;;17.50;63.30;;;;;;5033495;28;20025;-65
2022/05/05 07:42:57;;;;;;;1.40;1.30;;;17.50;63.10;;;;;;5032262;28;20515;-64
2022/05/05 07:45:22;;;;;;;1.23;1.10;;;17.50;64.10;;;;;;5033639;28;20427;-64
2022/05/05 07:47:48;;;;;;;1.73;1.40;;;17.50;64.10;;;;;;5032294;28;20488;-64
2022/05/05 07:50:14;;;;;;;2.03;1.25;;;17.40;62.90;;;;;;5032198;28;20033;-65
2022/05/05 07:52:40;;;;;;;3.58;1.33;;;17.40;63.00;;;;;;5033545;28;20053;-64
2022/05/05 07:55:06;;;;;;;1.10;1.00;;;17.40;63.00;;;;;;5033517;28;20488;-64
2022/05/05 07:57:32;;;;;;;1.27;1.02;;;17.40;62.80;;;;;;5033143;28;20084;-64
2022/05/05 07:59:57;;;;;;;1.30;1.17;;;17.40;62.80;;;;;;5033023;28;20496;-64
2022/05/05 08:02:23;;;;;;;2.22;1.30;;;17.40;62.70;;;;;;5032237;28;20381;-64
2022/05/05 08:04:49;;;;;;;2.78;1.38;;;17.40;62.70;;;;;;5033560;28;20026;-64
2022/05/05 08:07:14;;;;;;;2.90;1.17;;;17.40;62.70;;;;;;5033081;28;20057;-64
2022/05/05 08:09:40;;;;;;;1.50;1.30;;;17.40;62.60;;;;;;5031813;28;20024;-64
2022/05/05 08:12:06;;;;;;;1.35;1.25;;;17.40;62.70;;;;;;5015431;28;20056;-64
2022/05/05 08:14:32;;;;;;;1.08;0.80;;;17.40;62.50;;;;;;5033515;28;20036;-65
2022/05/05 08:16:58;;;;;;;1.20;1.08;;;17.40;62.50;;;;;;5031669;28;20030;-64
2022/05/05 08:19:23;;;;;;;1.65;1.10;;;17.40;62.50;;;;;;5031980;28;20063;-64
2022/05/05 08:21:49;;;;;;;2.22;0.90;;;17.30;62.20;;;;;;5032743;28;20025;-64
2022/05/05 08:29:43;;;;;;;1.20;1.05;;;17.30;62.00;;;;;;5032022;28;20027;-64
2022/05/05 08:32:09;;;;;;;1.33;0.95;;;17.20;61.80;;;;;;5032887;28;20029;-64
2022/05/05 08:34:35;;;;;;;1.33;0.95;;;17.20;61.70;;;;;;5031584;28;20480;-64
2022/05/05 08:37:00;;;;;;;1.67;1.00;;;17.20;61.60;;;;;;5032474;28;20029;-64
2022/05/05 08:39:26;;;;;;;1.75;1.10;;;17.20;61.60;;;;;;5032779;28;20021;-64
2022/05/05 08:41:55;;;;;;;1.02;0.93;;;17.20;61.50;;;;;;5030973;28;20057;-64
2022/05/05 08:44:20;;;;;;;1.30;0.80;;;17.20;61.50;;;;;;5032761;28;20021;-65
2022/05/05 08:46:50;;;;;;;2.05;1.02;;;17.20;61.50;;;;;;5032555;28;20442;-64
2022/05/05 08:49:17;;;;;;;1.10;0.88;;;17.20;61.40;;;;;;5032592;28;20094;-64
2022/05/05 08:51:44;;;;;;;1.33;1.02;;;17.20;61.30;;;;;;5015437;28;20041;-64
2022/05/05 08:54:17;;;;;;;2.70;1.08;;;17.20;61.30;;;;;;5032702;28;20025;-64
2022/05/05 08:56:50;;;;;;;1.48;0.68;;;17.20;61.20;;;;;;5031277;28;20492;-64
2022/05/05 08:59:16;;;;;;;;;;;17.20;61.10;;;;;;5031695;28;20127;-64
2022/05/05 09:01:42;;;;;;;0.82;0.82;;;17.10;60.40;;;;;;5032230;28;20012;-64
2022/05/05 09:04:08;;;;;;;1.02;0.80;;;17.10;61.20;;;;;;5032506;28;20029;-65
2022/05/05 09:06:42;;;;;;;1.52;0.77;;;17.10;61.10;;;;;;5031350;28;20029;-64
2022/05/05 09:09:30;;;;;;;1.25;0.90;;;17.10;60.90;;;;;;5031854;28;20025;-64
2022/05/05 09:12:14;;;;;;;1.10;1.00;;;17.10;61.00;;;;;;5031377;28;20019;-64
2022/05/05 09:14:46;;;;;;;0.82;0.80;;;17.20;60.70;;;;;;5032449;28;20023;-64
2022/05/05 09:17:18;;;;;;;3.00;0.90;;;17.20;61.00;;;;;;5032056;28;20037;-64
2022/05/05 09:19:49;;;;;;;2.75;1.20;;;17.20;60.80;;;;;;5034061;28;20029;-64
2022/05/05 09:22:17;;;;;;;2.75;1.00;;;17.20;60.80;;;;;;5035000;28;20052;-64
2022/05/05 09:24:43;;;;;;;3.22;1.02;;;17.20;60.70;;;;;;5035010;28;20033;-65
2022/05/05 09:27:33;;;;;;;4.18;1.00;;;17.20;60.60;;;;;;5034858;28;20029;-65
2022/05/05 09:30:00;;;;;;;3.30;0.90;;;17.20;60.40;;;;;;5036198;28;20029;-64
2022/05/05 09:32:34;;;;;;;1.27;0.88;;;17.10;60.50;;;;;;5036150;28;20440;-64
2022/05/05 09:35:09;;;;;;;1.85;0.77;;;17.20;60.50;;;;;;5034819;28;20038;-64
2022/05/05 09:37:35;;;;;;;2.10;1.02;;;17.20;60.20;;;;;;5036061;28;20045;-64
2022/05/05 09:40:02;;;;;;;3.72;0.82;;;17.10;60.30;;;;;;5034536;28;20508;-64
2022/05/05 09:42:36;;;;;;;1.60;0.88;;;17.20;60.40;;;;;;5035818;28;20045;-64
2022/05/05 09:45:12;;;;;;;2.47;0.90;;;17.20;60.30;;;;;;5035771;28;20030;-64
2022/05/05 09:47:38;;;;;;;5.70;0.90;;;17.20;60.20;;;;;;5035861;28;20028;-64
2022/05/05 09:50:05;;;;;;;3.50;1.40;;;17.20;60.30;;;;;;5034687;28;20534;-64
2022/05/05 09:58:03;;;;;;;2.88;0.98;;;17.20;60.00;;;;;;5034486;28;20080;-64
2022/05/05 10:05:41;;;;;;;0.65;0.65;;;17.20;60.00;;;;;;5035860;28;20071;-64
2022/05/05 10:08:07;;;;;;;1.67;0.90;;;17.20;60.00;;;;;;5035042;28;20411;-64
2022/05/05 10:10:34;;;;;;;1.13;0.93;;;17.20;59.80;;;;;;5017919;28;20033;-64
2022/05/05 10:12:59;;;;;;;1.08;0.70;;;17.20;59.90;;;;;;5035686;28;20025;-64
2022/05/05 10:15:25;;;;;;;0.80;0.63;;;17.20;59.80;;;;;;5034278;28;20537;-64
2022/05/05 10:17:51;;;;;;;1.35;1.05;;;17.20;59.80;;;;;;5034055;28;20025;-64
2022/05/05 10:20:16;;;;;;;0.70;0.70;;;17.20;59.80;;;;;;5035085;28;20029;-65
2022/05/05 10:23:06;;;;;;;1.75;0.90;;;17.30;59.80;;;;;;5034957;28;20029;-65
2022/05/05 10:25:35;;;;;;;1.75;0.88;;;17.30;59.40;;;;;;5018230;28;20036;-64
2022/05/05 10:28:00;;;;;;;0.88;0.60;;;17.30;59.70;;;;;;5033821;28;20041;-65
2022/05/05 10:30:36;;;;;;;0.82;0.73;;;17.30;59.70;;;;;;5034015;28;20072;-64
2022/05/05 10:33:06;;;;;;;0.70;0.70;;;17.30;59.40;;;;;;5033670;28;20105;-64
2022/05/05 10:35:47;;;;;;;0.80;0.80;;;17.30;59.50;;;;;;5017622;28;20029;-65
2022/05/05 10:38:40;;;;;;;0.82;0.82;;;17.30;59.50;;;;;;5034760;28;20031;-64
2022/05/05 10:41:31;;;;;;;0.73;0.73;;;17.30;59.30;;;;;;5034644;28;20060;-64
2022/05/05 10:44:19;;;;;;;1.20;0.80;;;17.30;59.30;;;;;;5034732;28;20044;-65
2022/05/05 10:46:58;;;;;;;1.35;0.90;;;17.30;59.30;;;;;;5033769;28;20026;-64
2022/05/05 10:49:42;;;;;;;1.13;1.02;;;17.30;59.50;;;;;;5033759;28;20021;-65
2022/05/05 10:52:11;;;;;;;0.95;0.95;;;17.30;59.20;;;;;;5034442;28;20033;-65
2022/05/05 10:54:42;;;;;;;1.08;0.82;;;17.30;59.50;;;;;;5033475;28;20381;-64
2022/05/05 10:57:26;;;;;;;1.73;0.93;;;17.30;59.50;;;;;;5034443;28;20043;-64
2022/05/05 11:00:07;;;;;;;2.42;1.05;;;17.30;59.20;;;;;;5034231;28;20021;-64
2022/05/05 11:02:33;;;;;;;1.60;0.90;;;17.40;59.30;;;;;;5034625;28;20041;-64
2022/05/05 11:05:27;;;;;;;1.45;0.98;;;17.30;59.50;;;;;;5033062;28;20036;-64
2022/05/05 11:07:53;;;;;;;1.88;0.70;;;17.40;59.20;;;;;;5034387;28;20034;-65
2022/05/05 11:10:45;;;;;;;0.90;0.90;;;17.30;59.50;;;;;;5016620;28;20021;-64
2022/05/05 11:13:43;;;;;;;2.72;1.10;;;17.40;59.20;;;;;;5033673;28;20041;-64
2022/05/05 11:22:12;;;;;;;1.10;1.00;;;17.40;59.30;;;;;;5034011;28;20048;-64
2022/05/05 11:24:40;;;;;;;1.05;1.05;;;17.30;59.40;;;;;;5034092;28;20028;-64
2022/05/05 11:27:11;;;;;;;1.17;1.00;;;17.30;59.40;;;;;;5032726;28;20075;-64
2022/05/05 11:29:36;;;;;;;1.10;0.95;;;17.40;59.40;;;;;;5033946;28;20028;-64
2022/05/05 11:32:05;;;;;;;1.90;1.50;;;17.40;59.30;;;;;;5034150;28;20034;-64
2022/05/05 11:34:40;;;;;;;1.02;1.00;;;17.40;59.30;;;;;;5016340;28;20084;-64
2022/05/05 11:37:07;;;;;;;0.85;0.85;;;17.40;59.20;;;;;;5032614;28;20022;-64
2022/05/05 11:39:34;;;;;;;1.63;1.30;;;17.40;59.30;;;;;;5033876;28;20069;-64
2022/05/05 11:42:04;;;;;;;1.63;1.35;;;17.40;59.20;;;;;;5032095;28;20212;-64
2022/05/05 11:44:30;;;;;;;1.10;1.00;;;17.50;59.20;;;;;;5033587;28;20454;-64
2022/05/05 11:46:59;;;;;;;1.25;1.10;;;17.50;59.20;;;;;;5033662;28;20156;-64
2022/05/05 11:49:32;;;;;;;3.53;1.00;;;17.50;59.20;;;;;;5032472;28;20029;-64
2022/05/05 11:51:59;;;;;;;1.40;1.10;;;17.50;59.20;;;;;;5033686;28;20108;-64
2022/05/05 11:54:29;;;;;;;3.53;1.08;;;17.50;59.10;;;;;;5032312;28;20030;-64
2022/05/05 11:56:55;;;;;;;1.27;1.17;;;17.50;59.10;;;;;;5016077;28;20021;-64
2022/05/05 12:02:09;;;;;;;3.13;1.38;;;17.50;59.00;;;;;;5013718;28;20029;-64
2022/05/05 12:04:36;;;;;;;1.95;1.20;;;17.50;60.00;;;;;;5028200;28;20034;-65
2022/05/05 12:07:02;;;;;;;1.20;1.10;;;17.50;59.00;;;;;;5028705;28;20526;-64
2022/05/05 12:09:28;;;;;;;1.20;1.10;;;17.50;59.00;;;;;;5032004;28;20030;-64
2022/05/05 12:11:54;;;;;;;1.30;1.20;;;17.60;59.00;;;;;;5015587;28;20025;-64
2022/05/05 12:14:22;;;;;;;1.38;1.10;;;17.60;59.00;;;;;;5032860;28;20087;-64
2022/05/05 12:16:48;;;;;;;0.90;0.90;;;17.60;59.00;;;;;;5033110;28;20018;-65
2022/05/05 12:19:15;;;;;;;1.30;1.20;;;17.60;58.90;;;;;;5031804;28;20028;-65
2022/05/05 12:21:54;;;;;;;1.05;1.00;;;17.60;58.90;;;;;;5015472;28;20087;-65
2022/05/05 12:24:22;;;;;;;1.25;1.15;;;17.70;58.80;;;;;;5031694;28;20024;-65
2022/05/05 12:26:48;;;;;;;1.02;1.02;;;17.60;58.90;;;;;;5015747;28;20025;-64
2022/05/05 12:29:14;;;;;;;1.73;1.20;;;17.60;58.80;;;;;;5032707;28;20483;-65
2022/05/05 12:31:51;;;;;;;5.15;1.40;;;17.70;58.90;;;;;;5031767;28;20059;-65
2022/05/05 12:34:25;;;;;;;1.20;1.10;;;17.70;58.80;;;;;;5015438;28;20226;-64
2022/05/05 12:37:15;;;;;;;1.30;1.20;;;17.70;58.80;;;;;;5031645;28;20022;-64
2022/05/05 12:40:09;;;;;;;1.35;1.23;;;17.70;58.70;;;;;;5031598;28;20021;-64
2022/05/05 12:42:43;;;;;;;1.40;1.23;;;17.70;58.80;;;;;;5032477;28;20362;-64
2022/05/05 12:45:24;;;;;;;1.48;1.02;;;17.70;58.90;;;;;;5032491;28;20120;-64
2022/05/05 12:47:50;;;;;;;1.23;1.13;;;17.80;59.00;;;;;;5032303;28;20400;-64
2022/05/05 12:50:32;;;;;;;1.15;1.05;;;17.80;58.90;;;;;;5032418;28;20025;-65
2022/05/05 13:01:26;;;;;;;1.92;1.40;;;17.80;58.90;;;;;;4996318;28;20076;-64
2022/05/05 13:03:54;;;;;;;1.48;1.20;;;17.90;58.90;;;;;;5010590;28;20018;-64
2022/05/05 13:06:19;;;;;;;3.28;1.48;;;17.90;58.90;;;;;;5010362;28;20034;-65
2022/05/05 13:08:47;;;;;;;1.42;1.27;;;17.90;58.80;;;;;;5010305;28;20037;-64
2022/05/05 13:11:14;;;;;;;1.60;1.30;;;17.90;58.80;;;;;;4994384;28;20104;-64
2022/05/05 13:13:40;;;;;;;1.25;1.15;;;17.90;58.70;;;;;;5010390;28;20041;-65
2022/05/05 13:16:05;;;;;;;1.38;1.20;;;18.00;58.80;;;;;;5010456;28;20030;-64
2022/05/05 13:18:31;;;;;;;3.00;1.52;;;18.00;58.80;;;;;;4993837;28;20030;-65
2022/05/05 13:20:57;;;;;;;1.40;1.30;;;18.00;58.70;;;;;;5010367;28;20046;-65
2022/05/05 13:23:22;;;;;;;1.73;1.60;;;18.10;58.70;;;;;;5010299;28;20048;-64
2022/05/05 13:25:48;;;;;;;2.35;1.38;;;18.00;58.60;;;;;;5010459;28;20424;-64
2022/05/05 13:28:13;;;;;;;3.70;1.58;;;18.10;58.60;;;;;;5010227;28;20032;-64
2022/05/05 13:30:39;;;;;;;1.60;1.50;;;18.10;58.60;;;;;;4993598;28;20038;-65
2022/05/05 13:33:05;;;;;;;1.38;1.20;;;18.10;58.60;;;;;;5003309;28;20034;-64
2022/05/05 13:35:30;;;;;;;2.17;1.33;;;18.10;58.60;;;;;;5012273;28;20443;-65
2022/05/05 13:37:58;;;;;;;3.42;1.60;;;18.10;58.50;;;;;;5012482;28;20022;-64
2022/05/05 13:40:25;;;;;;;1.40;1.30;;;18.20;58.50;;;;;;5010856;28;20029;-66
2022/05/05 13:42:51;;;;;;;1.88;1.38;;;18.20;58.50;;;;;;5011254;28;20026;-64
2022/05/05 13:45:16;;;;;;;2.05;1.30;;;18.20;58.60;;;;;;5010878;28;20113;-65